createdAt,value
2024-04-15T00:01:55.391Z,11
2024-04-15T00:04:55.400Z,12
2024-04-15T00:06:55.410Z,10
2024-04-15T00:08:55.392Z,9
2024-04-15T00:11:55.400Z,12
2024-04-15T00:13:55.393Z,9
2024-04-15T00:15:55.601Z,10
2024-04-15T00:18:55.413Z,10
2024-04-15T00:21:55.415Z,12
2024-04-15T00:23:55.361Z,11
2024-04-15T00:26:55.408Z,14
2024-04-15T00:28:55.400Z,12
2024-04-15T00:30:55.407Z,14
2024-04-15T00:33:55.386Z,15
2024-04-15T00:35:55.381Z,13
2024-04-15T00:37:55.395Z,13
2024-04-15T00:40:55.542Z,14
2024-04-15T00:43:55.508Z,13
2024-04-15T00:45:56.094Z,14
2024-04-15T00:48:56.139Z,12
2024-04-15T00:51:57.788Z,13
2024-04-15T00:54:55.658Z,13
2024-04-15T00:57:55.807Z,14
2024-04-15T01:00:55.982Z,12
2024-04-15T01:03:55.572Z,13
2024-04-15T01:05:55.436Z,12
2024-04-15T01:08:55.411Z,20
2024-04-15T01:11:55.479Z,20
2024-04-15T01:14:55.407Z,23
2024-04-15T01:17:55.458Z,24
2024-04-15T01:20:55.376Z,25
2024-04-15T01:23:55.402Z,22
2024-04-15T01:25:55.417Z,25
2024-04-15T01:27:55.503Z,23
2024-04-15T01:30:55.458Z,25
2024-04-15T01:33:55.413Z,26
2024-04-15T01:35:55.418Z,24
2024-04-15T01:38:55.418Z,24
2024-04-15T01:41:55.401Z,25
2024-04-15T01:44:55.378Z,23
2024-04-15T01:46:55.469Z,23
2024-04-15T01:49:55.443Z,23
2024-04-15T01:52:55.399Z,25
2024-04-15T01:54:55.459Z,26
2024-04-15T01:57:55.480Z,28
2024-04-15T02:00:55.423Z,30
2024-04-15T02:02:55.441Z,24
2024-04-15T02:05:55.403Z,25
2024-04-15T02:08:55.446Z,23
2024-04-15T02:11:55.431Z,15
2024-04-15T02:14:55.473Z,24
2024-04-15T02:17:55.521Z,23
2024-04-15T02:20:55.440Z,20
2024-04-15T02:22:55.446Z,23
2024-04-15T02:24:55.451Z,21
2024-04-15T02:27:55.467Z,20
2024-04-15T02:29:55.411Z,19
2024-04-15T02:32:55.428Z,19
2024-04-15T02:34:55.464Z,18
2024-04-15T02:37:55.493Z,21
2024-04-15T02:40:55.386Z,22
2024-04-15T02:42:55.431Z,21
2024-04-15T02:44:55.488Z,21
2024-04-15T02:47:55.571Z,19
2024-04-15T02:49:55.433Z,23
2024-04-15T02:51:55.457Z,18
2024-04-15T02:54:55.436Z,19
2024-04-15T02:56:55.428Z,19
2024-04-15T02:59:55.387Z,21
2024-04-15T03:01:55.678Z,19
2024-04-15T03:03:55.569Z,20
2024-04-15T03:06:55.459Z,20
2024-04-15T03:09:55.447Z,20
2024-04-15T03:12:55.452Z,21
2024-04-15T03:14:55.445Z,21
2024-04-15T03:16:55.526Z,18
2024-04-15T03:19:55.446Z,20
2024-04-15T03:21:55.463Z,22
2024-04-15T03:24:55.476Z,21
2024-04-15T03:27:55.429Z,26
2024-04-15T03:30:55.436Z,20
2024-04-15T03:32:55.458Z,24
2024-04-15T03:35:55.458Z,23
2024-04-15T03:37:55.419Z,22
2024-04-15T03:39:55.544Z,24
2024-04-15T03:41:55.483Z,24
2024-04-15T03:44:55.429Z,20
2024-04-15T03:46:55.461Z,21
2024-04-15T03:48:55.435Z,22
2024-04-15T03:51:55.438Z,21
2024-04-15T03:53:55.471Z,23
2024-04-15T03:56:55.421Z,22
2024-04-15T03:58:55.427Z,21
2024-04-15T04:00:55.443Z,22
2024-04-15T04:02:55.449Z,23
2024-04-15T04:06:05.332Z,23
2024-04-15T04:08:55.429Z,22
2024-04-15T04:11:55.471Z,20
2024-04-15T04:13:55.509Z,20
2024-04-15T04:16:55.463Z,22
2024-04-15T04:19:55.448Z,20
2024-04-15T04:21:55.457Z,18
2024-04-15T04:24:55.468Z,22
2024-04-15T04:26:55.424Z,20
2024-04-15T04:29:55.469Z,23
2024-04-15T04:32:55.549Z,22
2024-04-15T04:35:55.423Z,26
2024-04-15T04:37:55.461Z,21
2024-04-15T04:40:55.423Z,20
2024-04-15T04:42:55.464Z,22
2024-04-15T04:45:55.511Z,21
2024-04-15T04:47:55.544Z,22
2024-04-15T04:50:55.429Z,21
2024-04-15T04:52:55.450Z,21
2024-04-15T04:55:55.437Z,24
2024-04-15T04:57:55.472Z,22
2024-04-15T05:00:55.474Z,22
2024-04-15T05:03:55.512Z,20
2024-04-15T05:06:55.450Z,24
2024-04-15T05:08:55.459Z,20
2024-04-15T05:11:55.502Z,23
2024-04-15T05:13:55.492Z,26
2024-04-15T05:16:55.481Z,20
2024-04-15T05:19:55.435Z,24
2024-04-15T05:21:55.496Z,27
2024-04-15T05:24:55.532Z,23
2024-04-15T05:26:58.154Z,33
2024-04-15T05:28:55.455Z,22
2024-04-15T05:31:55.484Z,25
2024-04-15T05:34:55.459Z,24
2024-04-15T05:36:55.492Z,28
2024-04-15T05:39:55.463Z,23
2024-04-15T05:42:55.495Z,24
2024-04-15T05:44:55.471Z,25
2024-04-15T05:47:55.537Z,26
2024-04-15T05:49:55.460Z,26
2024-04-15T05:52:55.473Z,27
2024-04-15T05:54:55.579Z,28
2024-04-15T05:57:55.559Z,24
2024-04-15T06:00:55.602Z,25
2024-04-15T06:03:55.512Z,30
2024-04-15T06:05:55.504Z,27
2024-04-15T06:08:55.435Z,32
2024-04-15T06:10:55.558Z,30
2024-04-15T06:13:55.450Z,32
2024-04-15T06:16:55.592Z,30
2024-04-15T06:19:55.451Z,34
2024-04-15T06:21:55.559Z,32
2024-04-15T06:24:55.486Z,32
2024-04-15T06:27:55.508Z,31
2024-04-15T06:29:55.492Z,31
2024-04-15T06:31:55.473Z,30
2024-04-15T06:34:55.502Z,38
2024-04-15T06:36:55.497Z,31
2024-04-15T06:38:55.473Z,33
2024-04-15T06:41:55.483Z,31
2024-04-15T06:44:55.456Z,32
2024-04-15T06:47:55.579Z,31
2024-04-15T06:49:55.484Z,31
2024-04-15T06:52:55.471Z,32
2024-04-15T06:55:55.487Z,32
2024-04-15T06:57:55.520Z,33
2024-04-15T06:59:55.486Z,33
2024-04-15T07:02:55.488Z,31
2024-04-15T07:04:55.541Z,36
2024-04-15T07:06:55.515Z,33
2024-04-15T07:09:57.611Z,29
2024-04-15T07:11:55.581Z,30
2024-04-15T07:14:55.468Z,27
2024-04-15T07:16:55.723Z,29
2024-04-15T07:19:55.464Z,30
2024-04-15T07:22:55.465Z,30
2024-04-15T07:24:55.625Z,28
2024-04-15T07:27:55.544Z,33
2024-04-15T07:30:55.489Z,33
2024-04-15T07:32:55.516Z,34
2024-04-15T07:35:55.474Z,36
2024-04-15T07:37:55.495Z,35
2024-04-15T07:40:55.500Z,30
2024-04-15T07:43:55.530Z,23
2024-04-15T07:45:55.575Z,23
2024-04-15T07:48:55.495Z,27
2024-04-15T07:51:55.578Z,26
2024-04-15T07:54:55.539Z,25
2024-04-15T07:57:55.495Z,26
2024-04-15T08:00:55.576Z,27
2024-04-15T08:03:55.638Z,28
2024-04-15T08:07:03.591Z,25
2024-04-15T08:08:55.530Z,28
2024-04-15T08:11:55.755Z,29
2024-04-15T08:13:55.472Z,30
2024-04-15T08:15:55.585Z,29
2024-04-15T08:18:55.510Z,28
2024-04-15T08:21:55.525Z,25
2024-04-15T08:24:55.525Z,28
2024-04-15T08:26:55.498Z,25
2024-04-15T08:29:55.498Z,24
2024-04-15T08:32:55.519Z,34
2024-04-15T08:35:55.526Z,27
2024-04-15T08:37:55.534Z,24
2024-04-15T08:40:55.497Z,25
2024-04-15T08:43:55.559Z,27
2024-04-15T08:46:55.558Z,23
2024-04-15T08:49:55.521Z,26
2024-04-15T08:51:55.586Z,28
2024-04-15T08:54:55.502Z,27
2024-04-15T08:56:55.900Z,29
2024-04-15T08:59:55.523Z,27
2024-04-15T09:02:55.586Z,26
2024-04-15T09:05:55.557Z,26
2024-04-15T09:08:55.506Z,30
2024-04-15T09:10:55.524Z,28
2024-04-15T09:12:55.923Z,24
2024-04-15T09:15:55.518Z,26
2024-04-15T09:17:55.598Z,26
2024-04-15T09:19:55.528Z,25
2024-04-15T09:22:55.550Z,29
2024-04-15T09:25:55.532Z,26
2024-04-15T09:28:55.593Z,25
2024-04-15T09:31:55.552Z,27
2024-04-15T09:33:55.905Z,27
2024-04-15T09:36:55.591Z,23
2024-04-15T09:38:55.514Z,29
2024-04-15T09:41:55.507Z,26
2024-04-15T09:44:55.502Z,21
2024-04-15T09:46:55.498Z,23
2024-04-15T09:48:55.564Z,23
2024-04-15T09:51:55.545Z,20
2024-04-15T09:54:55.513Z,20
2024-04-15T09:57:55.646Z,18
2024-04-15T10:00:55.601Z,17
2024-04-15T10:03:55.609Z,19
2024-04-15T10:05:55.538Z,18
2024-04-15T10:08:55.534Z,16
2024-04-15T10:10:55.529Z,17
2024-04-15T10:12:55.513Z,17
2024-04-15T10:15:55.588Z,17
2024-04-15T10:18:55.547Z,13
2024-04-15T10:20:55.531Z,15
2024-04-15T10:23:55.641Z,13
2024-04-15T10:25:55.520Z,18
2024-04-15T10:27:55.508Z,15
2024-04-15T10:29:55.551Z,19
2024-04-15T10:32:55.600Z,14
2024-04-15T10:34:55.820Z,18
2024-04-15T10:36:55.583Z,13
2024-04-15T10:39:55.581Z,14
2024-04-15T10:42:55.560Z,13
2024-04-15T10:45:55.569Z,20
2024-04-15T10:47:55.648Z,13
2024-04-15T10:49:55.539Z,14
2024-04-15T10:52:55.530Z,13
2024-04-15T10:55:55.598Z,13
2024-04-15T10:57:55.582Z,15
2024-04-15T11:00:55.619Z,13
2024-04-15T11:03:55.657Z,15
2024-04-15T11:06:55.552Z,13
2024-04-15T11:08:55.540Z,16
2024-04-15T11:11:55.528Z,16
2024-04-15T11:14:55.558Z,15
2024-04-15T11:16:55.609Z,14
2024-04-15T11:19:55.542Z,13
2024-04-15T11:22:55.582Z,13
2024-04-15T11:25:55.542Z,11
2024-04-15T11:27:55.563Z,11
2024-04-15T11:30:55.624Z,11
2024-04-15T11:32:55.567Z,11
2024-04-15T11:35:55.564Z,12
2024-04-15T11:38:55.521Z,13
2024-04-15T11:40:55.552Z,13
2024-04-15T11:42:55.648Z,8
2024-04-15T11:45:55.628Z,10
2024-04-15T11:47:55.594Z,11
2024-04-15T11:50:55.531Z,11
2024-04-15T11:52:55.566Z,9
2024-04-15T11:55:55.710Z,12
2024-04-15T11:58:55.564Z,11
2024-04-15T12:01:55.600Z,12
2024-04-15T12:04:55.692Z,9
2024-04-15T12:06:55.540Z,12
2024-04-15T12:08:55.595Z,11
2024-04-15T12:11:55.551Z,13
2024-04-15T12:13:55.556Z,10
2024-04-15T12:16:55.745Z,8
2024-04-15T12:18:55.602Z,10
2024-04-15T12:20:55.537Z,10
2024-04-15T12:22:55.559Z,12
2024-04-15T12:25:55.592Z,10
2024-04-15T12:28:55.569Z,11
2024-04-15T12:31:55.537Z,12
2024-04-15T12:33:55.576Z,10
2024-04-15T12:36:55.554Z,10
2024-04-15T12:39:55.557Z,9
2024-04-15T12:41:55.561Z,9
2024-04-15T12:43:55.545Z,12
2024-04-15T12:45:55.545Z,11
2024-04-15T12:48:55.538Z,9
2024-04-15T12:50:55.555Z,12
2024-04-15T12:52:55.561Z,15
2024-04-15T12:54:55.604Z,8
2024-04-15T12:57:55.608Z,10
2024-04-15T12:59:55.528Z,12
2024-04-15T13:02:02.342Z,8
2024-04-15T13:04:55.745Z,8
2024-04-15T13:07:55.575Z,12
2024-04-15T13:10:55.576Z,11
2024-04-15T13:13:55.554Z,10
2024-04-15T13:16:55.566Z,10
2024-04-15T13:19:55.556Z,9
2024-04-15T13:22:55.543Z,10
2024-04-15T13:24:55.661Z,9
2024-04-15T13:27:55.550Z,10
2024-04-15T13:29:55.566Z,9
2024-04-15T13:32:55.605Z,11
2024-04-15T13:34:55.561Z,9
2024-04-15T13:37:55.548Z,10
2024-04-15T13:39:55.609Z,8
2024-04-15T13:42:55.551Z,8
2024-04-15T13:44:55.571Z,7
2024-04-15T13:46:55.615Z,8
2024-04-15T13:49:55.604Z,8
2024-04-15T13:52:55.566Z,12
2024-04-15T13:55:55.564Z,7
2024-04-15T13:57:55.577Z,10
2024-04-15T14:00:55.793Z,9
2024-04-15T14:02:57.050Z,10
2024-04-15T14:05:55.578Z,10
2024-04-15T14:07:55.577Z,7
2024-04-15T14:10:56.709Z,9
2024-04-15T14:12:55.611Z,8
2024-04-15T14:14:55.584Z,10
2024-04-15T14:17:55.597Z,8
2024-04-15T14:19:58.294Z,9
2024-04-15T14:21:55.599Z,10
2024-04-15T14:24:55.616Z,9
2024-04-15T14:27:55.592Z,8
2024-04-15T14:30:55.650Z,8
2024-04-15T14:32:55.867Z,8
2024-04-15T14:35:55.603Z,8
2024-04-15T14:38:55.579Z,10
2024-04-15T14:41:55.586Z,10
2024-04-15T14:43:57.872Z,6
2024-04-15T14:45:55.739Z,8
2024-04-15T14:48:55.628Z,8
2024-04-15T14:50:55.625Z,8
2024-04-15T14:53:55.582Z,7
2024-04-15T14:56:55.560Z,8
2024-04-15T14:58:55.620Z,8
2024-04-15T15:01:55.686Z,9
2024-04-15T15:04:55.654Z,7
2024-04-15T15:07:55.678Z,8
2024-04-15T15:09:55.721Z,7
2024-04-15T15:12:55.657Z,8
2024-04-15T15:15:55.762Z,7
2024-04-15T15:18:55.845Z,7
2024-04-15T15:20:58.470Z,6
2024-04-15T15:22:55.647Z,10
2024-04-15T15:25:55.660Z,9
2024-04-15T15:27:55.597Z,7
2024-04-15T15:29:55.613Z,9
2024-04-15T15:32:55.690Z,7
2024-04-15T15:34:55.595Z,11
2024-04-15T15:37:55.623Z,8
2024-04-15T15:40:55.626Z,8
2024-04-15T15:42:55.625Z,7
2024-04-15T15:47:55.750Z,9
2024-04-15T15:49:55.592Z,8
2024-04-15T15:52:55.679Z,7
2024-04-15T15:55:55.592Z,8
2024-04-15T15:58:55.692Z,5
2024-04-15T16:00:55.662Z,6
2024-04-15T16:03:55.961Z,7
2024-04-15T16:05:55.607Z,6
2024-04-15T16:08:55.651Z,7
2024-04-15T16:11:55.617Z,7
2024-04-15T16:14:55.625Z,7
2024-04-15T16:16:55.636Z,13
2024-04-15T16:19:55.647Z,9
2024-04-15T16:22:55.625Z,7
2024-04-15T16:25:55.614Z,6
2024-04-15T16:28:55.612Z,6
2024-04-15T16:30:55.665Z,13
2024-04-15T16:33:55.660Z,8
2024-04-15T16:36:55.590Z,6
2024-04-15T16:38:55.724Z,7
2024-04-15T16:41:55.625Z,5
2024-04-15T16:44:55.691Z,8
2024-04-15T16:47:55.772Z,7
2024-04-15T16:49:55.680Z,10
2024-04-15T16:52:55.618Z,7
2024-04-15T16:54:55.671Z,8
2024-04-15T16:57:55.626Z,7
2024-04-15T17:00:55.695Z,5
2024-04-15T17:02:55.683Z,9
2024-04-15T17:05:55.627Z,6
2024-04-15T17:08:55.671Z,6
2024-04-15T17:10:55.707Z,7
2024-04-15T17:13:55.641Z,9
2024-04-15T17:16:55.621Z,7
2024-04-15T17:19:55.645Z,6
2024-04-15T17:22:55.651Z,6
2024-04-15T17:24:55.651Z,6
2024-04-15T17:27:55.652Z,8
2024-04-15T17:29:55.638Z,5
2024-04-15T17:32:55.695Z,7
2024-04-15T17:34:55.628Z,7
2024-04-15T17:36:55.642Z,5
2024-04-15T17:38:55.708Z,7
2024-04-15T17:41:55.637Z,6
2024-04-15T17:43:55.714Z,6
2024-04-15T17:46:55.626Z,6
2024-04-15T17:49:55.628Z,5
2024-04-15T17:51:55.687Z,4
2024-04-15T17:53:55.650Z,8
2024-04-15T17:56:55.636Z,5
2024-04-15T17:59:55.632Z,5
2024-04-15T18:01:55.672Z,5
2024-04-15T18:03:55.750Z,6
2024-04-15T18:06:55.669Z,5
2024-04-15T18:09:55.662Z,5
2024-04-15T18:12:55.695Z,5
2024-04-15T18:14:55.668Z,6
2024-04-15T18:17:55.649Z,5
2024-04-15T18:19:55.646Z,6
2024-04-15T18:22:55.633Z,4
2024-04-15T18:24:55.671Z,8
2024-04-15T18:26:55.640Z,5
2024-04-15T18:29:55.652Z,7
2024-04-15T18:31:55.670Z,9
2024-04-15T18:34:55.679Z,6
2024-04-15T18:37:55.627Z,8
2024-04-15T18:39:55.732Z,5
2024-04-15T18:42:55.677Z,6
2024-04-15T18:44:56.039Z,5
2024-04-15T18:47:55.697Z,7
2024-04-15T18:50:55.657Z,6
2024-04-15T18:53:55.656Z,5
2024-04-15T18:55:55.690Z,5
2024-04-15T18:58:55.646Z,6
2024-04-15T19:01:55.842Z,5
2024-04-15T19:04:55.690Z,5
2024-04-15T19:06:55.738Z,7
2024-04-15T19:09:55.697Z,5
2024-04-15T19:12:55.723Z,5
2024-04-15T19:15:04.539Z,6
2024-04-15T19:16:55.681Z,5
2024-04-15T19:19:55.650Z,6
2024-04-15T19:21:55.693Z,7
2024-04-15T19:24:55.697Z,7
2024-04-15T19:26:55.701Z,6
2024-04-15T19:29:55.707Z,6
2024-04-15T19:32:55.688Z,6
2024-04-15T19:34:55.660Z,7
2024-04-15T19:36:55.747Z,6
2024-04-15T19:39:55.660Z,6
2024-04-15T19:42:55.677Z,9
2024-04-15T19:44:55.651Z,7
2024-04-15T19:46:55.699Z,7
2024-04-15T19:48:55.678Z,8
2024-04-15T19:51:55.667Z,6
2024-04-15T19:53:55.669Z,6
2024-04-15T19:55:55.659Z,7
2024-04-15T19:58:55.684Z,8
2024-04-15T20:00:55.692Z,7
2024-04-15T20:03:55.752Z,8
2024-04-15T20:05:55.693Z,8
2024-04-15T20:08:55.687Z,7
2024-04-15T20:11:55.630Z,7
2024-04-15T20:13:55.648Z,10
2024-04-15T20:15:55.671Z,9
2024-04-15T20:17:55.709Z,10
2024-04-15T20:20:55.660Z,11
2024-04-15T20:23:55.620Z,15
2024-04-15T20:25:55.650Z,9
2024-04-15T20:28:55.693Z,9
2024-04-15T20:30:55.730Z,10
2024-04-15T20:33:55.682Z,12
2024-04-15T20:35:55.650Z,11
2024-04-15T20:37:55.654Z,11
2024-04-15T20:39:55.891Z,11
2024-04-15T20:42:55.690Z,15
2024-04-15T20:45:55.706Z,12
2024-04-15T20:47:55.746Z,11
2024-04-15T20:50:55.660Z,11
2024-04-15T20:52:55.667Z,11
2024-04-15T20:55:55.638Z,12
2024-04-15T20:57:55.671Z,10
2024-04-15T20:59:55.662Z,13
2024-04-15T21:02:55.733Z,13
2024-04-15T21:04:55.698Z,10
2024-04-15T21:07:55.649Z,14
2024-04-15T21:09:55.700Z,11
2024-04-15T21:11:55.684Z,13
2024-04-15T21:13:55.672Z,14
2024-04-15T21:16:55.672Z,14
2024-04-15T21:18:55.785Z,12
2024-04-15T21:21:55.727Z,16
2024-04-15T21:23:55.676Z,16
2024-04-15T21:25:55.669Z,14
2024-04-15T21:28:55.694Z,12
2024-04-15T21:30:55.748Z,12
2024-04-15T21:33:55.720Z,12
2024-04-15T21:36:55.687Z,10
2024-04-15T21:38:55.791Z,15
2024-04-15T21:40:55.714Z,12
2024-04-15T21:43:55.658Z,12
2024-04-15T21:45:55.691Z,12
2024-04-15T21:48:55.717Z,10
2024-04-15T21:51:55.693Z,10
2024-04-15T21:53:55.698Z,13
2024-04-15T21:56:57.659Z,12
2024-04-15T21:58:55.674Z,10
2024-04-15T22:01:55.692Z,10
2024-04-15T22:04:59.711Z,12
2024-04-15T22:06:55.699Z,11
2024-04-15T22:08:55.687Z,13
2024-04-15T22:11:55.729Z,11
2024-04-15T22:13:55.717Z,10
2024-04-15T22:16:55.710Z,12
2024-04-15T22:18:55.764Z,15
2024-04-15T22:21:55.696Z,16
2024-04-15T22:23:55.746Z,8
2024-04-15T22:26:55.723Z,9
2024-04-15T22:29:55.730Z,11
2024-04-15T22:32:55.746Z,8
2024-04-15T22:35:55.695Z,7
2024-04-15T22:38:55.655Z,9
2024-04-15T22:40:55.658Z,8
2024-04-15T22:42:55.710Z,10
2024-04-15T22:44:55.718Z,9
2024-04-15T22:47:55.678Z,8
2024-04-15T22:49:55.675Z,9
2024-04-15T22:52:55.748Z,8
2024-04-15T22:54:55.805Z,10
2024-04-15T22:57:55.758Z,9
2024-04-15T23:00:55.741Z,11
2024-04-15T23:03:55.706Z,12
2024-04-15T23:05:55.701Z,13
2024-04-15T23:08:55.676Z,12
2024-04-15T23:10:55.736Z,13
2024-04-15T23:12:55.758Z,13
2024-04-15T23:15:55.707Z,18
2024-04-15T23:18:55.659Z,15
2024-04-15T23:20:55.685Z,17
2024-04-15T23:23:55.664Z,21
2024-04-15T23:25:55.692Z,14
2024-04-15T23:28:55.668Z,14
2024-04-15T23:30:55.745Z,12
2024-04-15T23:33:57.048Z,14
2024-04-15T23:36:55.688Z,16
2024-04-15T23:38:55.704Z,16
2024-04-15T23:40:55.713Z,15
2024-04-15T23:43:55.661Z,13
2024-04-15T23:46:55.711Z,16
2024-04-15T23:49:55.669Z,15
2024-04-15T23:52:55.757Z,18
2024-04-15T23:54:55.687Z,20
2024-04-15T23:56:55.758Z,12
2024-04-15T23:59:55.677Z,21
